.
WxDataArchive / Data Records for 2012-05-22
2012-05-21 May 2012 2012-05-23

Data Records for Tuesday, 22 May 2012

Time	Temp	Chill	HIndex	Humid	Dewpt	 Wind 	HiWind	WindDir	Rain 	Barom 
-----	----	-----	------	-----	-----	------	------	-------	-----	----- 
00:00	55.7	55.7	55.7	81	50.0	0	0	---	0.00	30.026 
00:05	55.7	55.7	55.7	81	50.0	0	0	---	0.00	30.026 
00:10	55.6	55.6	55.6	81	49.9	0	0	---	0.00	30.026 
00:15	55.6	55.6	55.6	81	49.9	0	0	---	0.00	30.019 
00:20	55.6	55.6	55.6	82	50.2	0	1	270	0.00	30.019 
00:25	55.6	55.6	55.6	82	50.2	0	1	270	0.00	30.019 
00:30	55.6	55.6	55.6	82	50.2	0	1	270	0.00	30.016 
00:35	55.4	55.4	55.4	83	50.3	0	1	270	0.00	30.016 
00:40	55.4	55.4	55.4	83	50.3	0	1	270	0.00	30.016 
00:45	55.4	55.4	55.4	83	50.3	0	1	270	0.00	30.017 
00:50	55.3	55.3	55.3	83	50.2	0	1	270	0.00	30.017 
00:55	55.3	55.3	55.3	84	50.5	0	2	270	0.00	30.017 
01:00	55.3	55.3	55.3	84	50.5	0	2	270	0.00	30.016 
01:05	55.3	55.3	55.3	84	50.5	0	1	270	0.00	30.016 
01:10	55.3	55.3	55.3	84	50.5	0	1	270	0.00	30.016 
01:15	55.3	55.3	55.3	84	50.5	0	1	270	0.00	30.014 
01:20	55.1	55.1	55.1	84	50.4	0	1	270	0.00	30.014 
01:25	55.1	55.1	55.1	84	50.4	0	3	270	0.00	30.014 
01:30	55.1	55.1	55.1	84	50.4	0	1	270	0.00	30.004 
01:35	55.1	55.1	55.1	84	50.4	0	1	270	0.00	30.004 
01:40	55.1	55.1	55.1	83	50.0	0	1	270	0.00	30.004 
01:45	55.1	55.1	55.1	83	50.0	0	1	270	0.00	30.003 
01:50	55.1	55.1	55.1	83	50.0	0	1	270	0.00	30.003 
01:55	55.0	55.0	55.0	83	49.9	0	1	270	0.00	30.003 
02:00	55.0	55.0	55.0	83	49.9	0	1	270	0.00	30.002 
02:05	55.0	55.0	55.0	83	49.9	0	2	270	0.00	30.002 
02:10	55.0	55.0	55.0	83	49.9	0	1	270	0.00	30.002 
02:15	55.0	55.0	55.0	83	49.9	0	2	270	0.00	30.001 
02:20	55.0	55.0	55.0	83	49.9	0	2	270	0.00	30.001 
02:25	55.0	55.0	55.0	82	49.6	0	2	270	0.00	30.001 
02:30	55.0	55.0	55.0	82	49.6	0	1	270	0.00	29.998 
02:35	54.8	54.8	54.8	82	49.4	0	1	270	0.00	29.998 
02:40	54.7	54.7	54.7	82	49.3	0	0	---	0.00	29.998 
02:45	54.7	54.7	54.7	83	49.6	0	1	270	0.00	29.993 
02:50	54.7	54.7	54.7	83	49.6	0	1	270	0.00	29.993 
02:55	54.7	54.7	54.7	83	49.6	0	1	270	0.00	29.993 
03:00	54.7	54.7	54.7	83	49.6	0	2	270	0.00	29.995 
03:05	54.7	54.7	54.7	83	49.6	0	2	270	0.00	29.995 
03:10	54.7	54.7	54.7	82	49.3	0	1	270	0.00	29.995 
03:15	54.7	54.7	54.7	82	49.3	0	1	270	0.00	29.995 
03:20	54.7	54.7	54.7	81	49.0	0	1	270	0.00	29.995 
03:25	54.8	54.8	54.8	80	48.7	0	1	270	0.00	29.995 
03:30	54.8	54.8	54.8	79	48.4	0	3	270	0.00	29.991 
03:35	54.8	54.8	54.8	78	48.1	0	1	270	0.00	29.991 
03:40	54.8	54.8	54.8	78	48.1	0	1	270	0.00	29.991 
03:45	54.7	54.7	54.7	77	47.6	0	1	270	0.00	29.990 
03:50	54.7	54.7	54.7	77	47.6	0	1	270	0.00	29.990 
03:55	54.5	54.5	54.5	77	47.4	0	1	270	0.00	29.990 
04:00	54.4	54.4	54.4	78	47.7	0	2	270	0.00	29.986 
04:05	54.2	54.2	54.2	78	47.5	0	1	270	0.00	29.986 
04:10	54.1	54.1	54.1	78	47.4	0	1	270	0.00	29.986 
04:15	54.1	54.1	54.1	78	47.4	0	1	270	0.00	29.989 
04:20	53.9	53.9	53.9	78	47.2	0	1	270	0.00	29.989 
04:25	53.8	53.8	53.8	78	47.1	0	1	270	0.00	29.989 
04:30	53.6	53.6	53.6	78	46.9	0	1	270	0.00	29.988 
04:35	53.5	53.5	53.5	79	47.1	0	0	---	0.00	29.988 
04:40	53.3	53.3	53.3	79	47.0	0	1	270	0.00	29.988 
04:45	53.2	53.2	53.2	79	46.9	0	1	270	0.00	29.987 
04:50	53.1	53.1	53.1	80	47.1	0	0	---	0.00	29.987 
04:55	52.9	52.9	52.9	80	46.9	0	1	270	0.00	29.987 
05:00	52.8	52.8	52.8	81	47.1	0	1	270	0.00	29.987 
05:05	52.6	52.6	52.6	81	46.9	0	1	270	0.00	29.987 
05:10	52.6	52.6	52.6	81	46.9	0	0	---	0.00	29.987 
05:15	52.5	52.5	52.5	81	46.8	0	1	270	0.00	29.982 
05:20	52.5	52.5	52.5	81	46.8	0	0	---	0.00	29.982 
05:25	52.3	52.3	52.3	81	46.6	0	1	270	0.00	29.982 
05:30	52.2	52.2	52.2	81	46.5	0	0	---	0.00	29.982 
05:35	52.2	52.2	52.2	81	46.5	0	0	---	0.00	29.982 
05:40	52.2	52.2	52.2	81	46.5	0	1	270	0.00	29.982 
05:45	52.2	52.2	52.2	81	46.5	0	1	270	0.00	29.981 
05:50	52.2	52.2	52.2	81	46.5	0	1	270	0.00	29.981 
05:55	52.2	52.2	52.2	81	46.5	0	1	270	0.00	29.981 
06:00	52.0	52.0	52.0	81	46.4	0	1	270	0.00	29.983 
06:05	52.0	52.0	52.0	81	46.4	0	1	270	0.00	29.983 
06:10	51.9	51.9	51.9	81	46.3	0	1	270	0.00	29.983 
06:15	51.9	51.9	51.9	81	46.3	0	1	270	0.00	29.978 
06:20	51.9	51.9	51.9	81	46.3	0	1	270	0.00	29.978 
06:25	51.7	51.7	51.7	81	46.1	0	1	270	0.00	29.978 
06:30	51.7	51.7	51.7	81	46.1	0	0	---	0.00	29.983 
06:35	51.6	51.6	51.6	81	46.0	0	1	270	0.00	29.983 
06:40	51.6	51.6	51.6	81	46.0	0	0	---	0.00	29.983 
06:45	51.6	51.6	51.6	81	46.0	0	1	270	0.00	29.982 
06:50	51.6	51.6	51.6	81	46.0	0	1	270	0.00	29.982 
06:55	51.6	51.6	51.6	81	46.0	0	1	270	0.00	29.982 
07:00	51.6	51.6	51.6	81	46.0	0	1	270	0.00	29.987 
07:05	51.6	51.6	51.6	82	46.3	0	1	270	0.00	29.987 
07:10	51.6	51.6	51.6	82	46.3	0	1	270	0.00	29.987 
07:15	51.9	51.9	51.9	82	46.6	0	2	270	0.00	29.992 
07:20	52.0	52.0	52.0	82	46.7	0	2	270	0.00	29.992 
07:25	52.2	52.2	52.2	81	46.5	0	1	270	0.00	29.992 
07:30	52.5	52.5	52.5	81	46.8	0	2	270	0.00	29.992 
07:35	52.6	52.6	52.6	81	46.9	0	0	---	0.00	29.992 
07:40	52.9	52.9	52.9	80	46.9	0	2	270	0.00	29.992 
07:45	53.1	53.1	53.1	80	47.1	0	1	270	0.00	29.992 
07:50	53.2	53.2	53.2	79	46.9	0	2	270	0.00	29.992 
07:55	53.3	53.3	53.3	79	47.0	0	1	270	0.00	29.992 
08:00	53.5	53.5	53.5	79	47.1	0	1	270	0.00	29.992 
08:05	53.6	53.6	53.6	78	46.9	0	2	270	0.00	29.992 
08:10	54.1	54.1	54.1	78	47.4	0	1	270	0.00	29.992 
08:15	54.7	54.7	54.7	77	47.6	0	1	270	0.00	29.997 
08:20	55.3	55.3	55.3	76	47.9	0	2	270	0.00	29.997 
08:25	55.7	55.7	55.7	75	47.9	0	1	270	0.00	29.997 
08:30	56.0	56.0	56.0	75	48.2	0	3	315	0.00	30.002 
08:35	56.5	56.5	56.5	74	48.3	0	2	315	0.00	30.002 
08:40	57.0	57.0	57.0	73	48.4	0	1	315	0.00	30.002 
08:45	57.8	57.8	57.8	71	48.5	0	4	292	0.00	30.001 
08:50	58.3	58.3	58.3	69	48.2	1	4	292	0.00	30.001 
08:55	58.6	58.6	58.6	69	48.5	0	3	90	0.00	30.001 
09:00	58.9	58.9	58.9	68	48.4	0	2	90	0.00	29.997 
09:05	59.2	59.2	59.2	69	49.0	0	2	90	0.00	29.997 
09:10	59.6	59.6	59.6	67	48.6	0	2	90	0.00	29.997 
09:15	59.9	59.9	59.9	66	48.5	0	1	90	0.00	30.003 
09:20	60.5	60.5	60.5	67	49.5	0	1	90	0.00	30.003 
09:25	60.9	60.9	60.9	64	48.6	0	1	90	0.00	30.003 
09:30	61.5	61.5	61.5	64	49.2	0	2	90	0.00	30.002 
09:35	61.5	61.5	61.5	62	48.4	1	4	68	0.00	30.002 
09:40	61.6	61.6	61.6	64	49.3	0	1	292	0.00	30.002 
09:45	62.1	62.1	62.1	61	48.5	1	5	292	0.00	30.004 
09:50	62.4	62.4	62.4	61	48.8	1	5	112	0.00	30.004 
09:55	62.7	62.7	62.7	62	49.5	0	2	112	0.00	30.004 
10:00	62.9	62.9	62.9	62	49.7	1	4	112	0.00	30.003 
10:05	63.5	63.5	63.5	58	48.5	1	3	112	0.00	30.003 
10:10	64.2	64.2	64.2	56	48.2	1	3	112	0.00	30.003 
10:15	64.2	64.2	64.2	56	48.2	1	3	90	0.00	30.004 
10:20	64.2	64.2	64.2	58	49.1	1	4	90	0.00	30.004 
10:25	64.5	64.5	64.5	56	48.4	1	2	90	0.00	30.004 
10:30	64.8	64.8	64.8	55	48.2	1	4	90	0.00	29.999 
10:35	64.7	64.7	64.7	54	47.7	2	6	270	0.00	29.999 
10:40	64.3	64.3	64.3	55	47.8	2	6	270	0.00	29.999 
10:45	64.0	64.0	64.0	55	47.5	1	3	270	0.00	29.998 
10:50	64.2	64.2	64.2	55	47.7	1	6	270	0.00	29.998 
10:55	64.5	64.5	64.5	54	47.5	1	2	270	0.00	29.998 
11:00	65.0	65.0	65.0	56	48.9	1	2	315	0.00	29.989 
11:05	65.6	65.6	65.6	54	48.5	1	4	270	0.00	29.989 
11:10	66.0	66.0	66.0	52	47.9	1	4	292	0.00	29.989 
11:15	66.1	66.1	66.1	54	49.0	1	3	292	0.00	29.988 
11:20	66.3	66.3	66.3	52	48.1	0	2	292	0.00	29.988 
11:25	66.3	66.3	66.3	53	48.6	1	2	292	0.00	29.988 
11:30	66.3	66.3	66.3	52	48.1	1	3	292	0.00	29.987 
11:35	66.3	66.3	66.3	53	48.6	1	4	292	0.00	29.987 
11:40	66.4	66.4	66.4	50	47.2	1	4	292	0.00	29.987 
11:45	66.4	66.4	66.4	52	48.2	1	4	292	0.00	29.987 
11:50	67.3	67.3	67.3	50	48.0	1	3	292	0.00	29.987 
11:55	67.6	67.6	67.6	50	48.3	1	4	292	0.00	29.987 
12:00	67.8	67.8	67.8	48	47.4	1	3	292	0.00	29.985 
12:05	67.9	67.9	67.9	47	46.9	1	4	292	0.00	29.985 
12:10	67.9	67.9	67.9	50	48.6	1	3	292	0.00	29.985 
12:15	68.1	68.1	68.1	47	47.1	1	4	292	0.00	29.984 
12:20	68.1	68.1	68.1	47	47.1	1	4	292	0.00	29.984 
12:25	68.3	68.3	68.3	49	48.4	0	3	292	0.00	29.984 
12:30	68.8	68.8	68.8	50	49.4	0	3	135	0.00	29.978 
12:35	69.4	69.4	69.4	45	47.1	1	3	270	0.00	29.978 
12:40	69.3	69.3	69.3	45	47.0	1	3	315	0.00	29.978 
12:45	68.9	68.9	68.9	47	47.8	1	4	270	0.00	29.976 
12:50	68.9	68.9	68.9	48	48.4	1	4	90	0.00	29.976 
12:55	69.3	69.3	69.3	50	49.8	1	3	270	0.00	29.976 
13:00	69.4	69.4	69.4	46	47.7	0	3	270	0.00	29.970 
13:05	70.3	70.3	70.3	48	49.7	0	2	270	0.00	29.970 
13:10	70.8	70.8	70.8	43	47.2	1	3	270	0.00	29.970 
13:15	71.1	71.1	71.1	45	48.7	1	4	135	0.00	29.965 
13:20	70.9	70.9	70.9	43	47.3	1	4	90	0.00	29.965 
13:25	70.6	70.6	70.6	43	47.0	1	3	90	0.00	29.965 
13:30	70.6	70.6	70.6	43	47.0	0	2	315	0.00	29.962 
13:35	70.9	70.9	70.9	42	46.6	0	3	315	0.00	29.962 
13:40	71.1	71.1	71.1	45	48.7	0	2	315	0.00	29.962 
13:45	71.8	71.8	71.8	45	49.3	1	4	68	0.00	29.953 
13:50	72.3	72.3	72.3	41	47.3	1	4	112	0.00	29.953 
13:55	72.5	72.5	72.5	40	46.8	1	5	68	0.00	29.953 
14:00	71.6	71.6	71.6	42	47.3	2	4	292	0.00	29.951 
14:05	71.6	71.6	71.6	43	47.9	1	2	292	0.00	29.951 
14:10	71.8	71.8	71.8	39	45.5	1	3	292	0.00	29.951 
14:15	71.8	71.8	71.8	39	45.5	1	3	292	0.00	29.950 
14:20	71.8	71.8	71.8	40	46.2	1	3	292	0.00	29.950 
14:25	71.8	71.8	71.8	40	46.2	1	4	292	0.00	29.950 
14:30	72.1	72.1	72.1	43	48.4	0	3	292	0.00	29.947 
14:35	72.5	72.5	72.5	39	46.1	1	4	90	0.00	29.947 
14:40	72.0	72.0	72.0	39	45.7	2	4	292	0.00	29.947 
14:45	72.1	72.1	72.1	39	45.8	1	3	292	0.00	29.942 
14:50	72.7	72.7	72.7	41	47.6	0	2	292	0.00	29.942 
14:55	72.7	72.7	72.7	39	46.3	0	3	315	0.00	29.942 
15:00	73.0	73.0	73.0	37	45.2	1	3	112	0.00	29.937 
15:05	73.2	73.2	73.2	38	46.1	1	3	112	0.00	29.937 
15:10	73.5	73.5	73.5	37	45.6	0	3	112	0.00	29.937 
15:15	73.7	73.7	73.7	37	45.8	1	5	112	0.00	29.934 
15:20	73.9	73.9	73.9	36	45.2	1	3	112	0.00	29.934 
15:25	73.7	73.7	73.7	38	46.5	1	3	270	0.00	29.934 
15:30	74.0	74.0	74.0	33	43.1	1	3	0	0.00	29.928 
15:35	74.2	74.2	74.2	37	46.2	1	3	338	0.00	29.928 
15:40	74.4	74.4	74.4	33	43.4	0	3	0	0.00	29.928 
15:45	74.4	74.4	74.4	34	44.2	2	5	90	0.00	29.921 
15:50	74.9	74.9	74.9	37	46.9	0	2	90	0.00	29.921 
15:55	74.9	74.9	74.9	34	44.6	1	5	90	0.00	29.921 
16:00	74.6	74.6	74.6	31	42.0	1	5	112	0.00	29.920 
16:05	74.7	74.7	74.7	32	42.9	0	2	112	0.00	29.920 
16:10	74.7	74.7	74.7	35	45.2	0	2	112	0.00	29.920 
16:15	74.6	74.6	74.6	35	45.1	1	4	112	0.00	29.915 
16:20	74.6	74.6	74.6	35	45.1	1	2	112	0.00	29.915 
16:25	74.6	74.6	74.6	32	42.8	1	3	112	0.00	29.915 
16:30	74.6	74.6	74.6	31	42.0	0	3	112	0.00	29.908 
16:35	74.4	74.4	74.4	32	42.6	1	3	338	0.00	29.908 
16:40	74.6	74.6	74.6	31	42.0	1	3	315	0.00	29.908 
16:45	74.6	74.6	74.6	32	42.8	0	2	315	0.00	29.905 
16:50	75.1	75.1	77.2	33	44.0	0	1	315	0.00	29.905 
16:55	74.7	74.7	74.7	30	41.2	1	4	315	0.00	29.905 
17:00	74.7	74.7	74.7	31	42.0	1	3	270	0.00	29.902 
17:05	74.9	74.9	74.9	30	41.4	1	3	158	0.00	29.902 
17:10	74.9	74.9	74.9	31	42.2	1	3	248	0.00	29.902 
17:15	74.7	74.7	74.7	32	42.9	1	3	0	0.00	29.901 
17:20	74.9	74.9	74.9	31	42.2	1	3	315	0.00	29.901 
17:25	75.1	75.1	77.1	32	43.2	1	3	112	0.00	29.901 
17:30	75.1	75.1	76.9	29	40.7	0	3	112	0.00	29.899 
17:35	74.9	74.9	74.9	29	40.5	1	2	112	0.00	29.899 
17:40	74.9	74.9	74.9	30	41.4	0	3	112	0.00	29.899 
17:45	74.6	74.6	74.6	31	42.0	0	2	112	0.00	29.894 
17:50	74.6	74.6	74.6	33	43.6	0	1	112	0.00	29.894 
17:55	74.4	74.4	74.4	32	42.6	0	2	112	0.00	29.894 
18:00	74.4	74.4	74.4	31	41.8	0	1	112	0.00	29.892 
18:05	74.2	74.2	74.2	32	42.4	0	2	112	0.00	29.892 
18:10	74.0	74.0	74.0	31	41.4	0	1	112	0.00	29.892 
18:15	73.9	73.9	73.9	31	41.3	0	2	112	0.00	29.890 
18:20	73.9	73.9	73.9	32	42.2	0	2	112	0.00	29.890 
18:25	73.7	73.7	73.7	33	42.8	0	2	112	0.00	29.890 
18:30	73.7	73.7	73.7	32	42.0	0	3	112	0.00	29.889 
18:35	73.9	73.9	73.9	33	43.0	1	3	112	0.00	29.889 
18:40	73.9	73.9	73.9	32	42.2	0	2	112	0.00	29.889 
18:45	73.9	73.9	73.9	32	42.2	0	3	112	0.00	29.886 
18:50	73.7	73.7	73.7	32	42.0	0	2	112	0.00	29.886 
18:55	73.7	73.7	73.7	32	42.0	0	3	112	0.00	29.886 
19:00	73.3	73.3	73.3	31	40.8	0	2	68	0.00	29.883 
19:05	73.2	73.2	73.2	34	43.1	0	1	68	0.00	29.883 
19:10	73.0	73.0	73.0	33	42.2	0	1	68	0.00	29.883 
19:15	73.0	73.0	73.0	34	43.0	0	2	68	0.00	29.881 
19:20	73.0	73.0	73.0	34	43.0	0	1	68	0.00	29.881 
19:25	73.0	73.0	73.0	34	43.0	0	2	68	0.00	29.881 
19:30	73.0	73.0	73.0	36	44.5	0	2	68	0.00	29.884 
19:35	72.8	72.8	72.8	37	45.0	0	2	68	0.00	29.884 
19:40	72.7	72.7	72.7	37	44.9	0	2	68	0.00	29.884 
19:45	72.5	72.5	72.5	38	45.4	0	2	68	0.00	29.888 
19:50	72.3	72.3	72.3	39	45.9	0	1	68	0.00	29.888 
19:55	72.1	72.1	72.1	38	45.1	0	3	68	0.00	29.888 
20:00	71.8	71.8	71.8	39	45.5	0	1	292	0.00	29.889 
20:05	71.5	71.5	71.5	39	45.2	0	1	292	0.00	29.889 
20:10	71.1	71.1	71.1	41	46.2	0	1	292	0.00	29.889 
20:15	70.8	70.8	70.8	41	45.9	0	1	292	0.00	29.887 
20:20	70.3	70.3	70.3	42	46.1	0	2	292	0.00	29.887 
20:25	69.9	69.9	69.9	42	45.8	0	1	292	0.00	29.887 
20:30	69.4	69.4	69.4	43	45.9	0	2	292	0.00	29.892 
20:35	69.1	69.1	69.1	43	45.7	0	1	292	0.00	29.892 
20:40	68.6	68.6	68.6	43	45.2	0	1	292	0.00	29.892 
20:45	68.3	68.3	68.3	44	45.5	0	1	292	0.00	29.897 
20:50	67.9	67.9	67.9	45	45.8	0	0	---	0.00	29.897 
20:55	67.4	67.4	67.4	46	45.9	0	0	---	0.00	29.897 
21:00	66.9	66.9	66.9	46	45.4	0	0	---	0.00	29.901 
21:05	66.6	66.6	66.6	47	45.7	0	0	---	0.00	29.901 
21:10	66.1	66.1	66.1	47	45.3	0	0	---	0.00	29.901 
21:15	65.8	65.8	65.8	48	45.6	0	0	---	0.00	29.898 
21:20	65.5	65.5	65.5	48	45.3	0	0	---	0.00	29.898 
21:25	65.3	65.3	65.3	49	45.6	0	0	---	0.00	29.898 
21:30	64.8	64.8	64.8	49	45.2	0	0	---	0.00	29.895 
21:35	64.5	64.5	64.5	49	44.9	0	0	---	0.00	29.895 
21:40	64.2	64.2	64.2	50	45.2	0	0	---	0.00	29.895 
21:45	63.9	63.9	63.9	51	45.4	0	0	---	0.00	29.899 
21:50	63.4	63.4	63.4	51	45.0	0	0	---	0.00	29.899 
21:55	63.1	63.1	63.1	53	45.7	0	0	---	0.00	29.899 
22:00	62.6	62.6	62.6	53	45.2	0	0	---	0.00	29.903 
22:05	62.3	62.3	62.3	54	45.4	0	0	---	0.00	29.903 
22:10	62.1	62.1	62.1	54	45.3	0	0	---	0.00	29.903 
22:15	61.8	61.8	61.8	55	45.5	0	0	---	0.00	29.907 
22:20	61.6	61.6	61.6	56	45.7	0	0	---	0.00	29.907 
22:25	61.3	61.3	61.3	56	45.5	0	0	---	0.00	29.907 
22:30	61.2	61.2	61.2	57	45.8	0	0	---	0.00	29.912 
22:35	60.9	60.9	60.9	57	45.6	0	0	---	0.00	29.912 
22:40	60.5	60.5	60.5	57	45.2	0	0	---	0.00	29.912 
22:45	60.4	60.4	60.4	58	45.6	0	0	---	0.00	29.918 
22:50	60.2	60.2	60.2	58	45.4	0	0	---	0.00	29.918 
22:55	59.9	59.9	59.9	59	45.5	0	0	---	0.00	29.918 
23:00	59.6	59.6	59.6	60	45.7	0	0	---	0.00	29.921 
23:05	59.5	59.5	59.5	60	45.6	0	0	---	0.00	29.921 
23:10	59.3	59.3	59.3	61	45.8	0	0	---	0.00	29.921 
23:15	59.0	59.0	59.0	61	45.6	0	0	---	0.00	29.918 
23:20	58.9	58.9	58.9	62	45.9	0	0	---	0.00	29.918 
23:25	58.6	58.6	58.6	62	45.6	0	0	---	0.00	29.918 
23:30	58.4	58.4	58.4	62	45.4	0	0	---	0.00	29.914 
23:35	58.3	58.3	58.3	62	45.3	0	0	---	0.00	29.914 
23:40	58.0	58.0	58.0	63	45.5	0	0	---	0.00	29.914 
23:45	57.8	57.8	57.8	63	45.3	0	0	---	0.00	29.918 
23:50	57.5	57.5	57.5	64	45.4	0	0	---	0.00	29.918 
23:55	57.3	57.3	57.3	65	45.6	0	0	---	0.00	29.918 

CoCoRaHS
IN-AL-39
A2 Web Hosting
Creative Commons License
GoDaddy
search engine by freefind advanced

loaded 2018-11-15 16:10:45 • last modified 2010-11-18 10:43:29
Privacy PolicyDisclaimer
• wx.awcolley.com is powered by PmWiki v.2002016 •
• all content (unless otherwise noted) © 2018 A W Colley